Time;durP1;ratioP1;P1;durP2;ratioP2;P2;SDS_P1;SDS_P2;PMS_P1;PMS_P2;Temp;Humidity;BMP_temperature;BMP_pressure;BME280_temperature;BME280_humidity;BME280_pressure;Samples;Min_cycle;Max_cycle;Signal;HPM_P1;HPM_P2
2023/03/22 00:01:18;;;;;;;10.67;4.90;;;;;;;43.15;32.89;101093.03;6154635;23;20397;-79
2023/03/22 00:03:45;;;;;;;13.40;6.17;;;;;;;43.09;33.37;101085.41;6154541;23;20389;-81
2023/03/22 00:06:11;;;;;;;12.13;5.20;;;;;;;43.16;32.83;101086.47;6154720;23;20412;-82
2023/03/22 00:08:38;;;;;;;18.47;5.87;;;;;;;43.09;33.18;101083.47;6154511;23;20391;-81
2023/03/22 00:11:05;;;;;;;12.53;6.20;;;;;;;43.13;33.17;101083.63;6154619;23;20389;-82
2023/03/22 00:13:33;;;;;;;15.50;5.47;;;;;;;43.10;33.08;101078.84;6154617;23;20412;-79
2023/03/22 00:16:01;;;;;;;11.13;4.73;;;;;;;43.15;33.12;101070.41;6154519;23;20385;-82
2023/03/22 00:18:28;;;;;;;12.50;5.23;;;;;;;43.18;32.75;101069.75;6154620;23;20389;-81
2023/03/22 00:20:57;;;;;;;16.90;5.17;;;;;;;43.14;33.05;101066.09;6154133;23;20511;-82
2023/03/22 00:23:24;;;;;;;11.17;5.47;;;;;;;43.14;33.19;101060.63;6154202;23;20825;-81
2023/03/22 00:25:51;;;;;;;19.27;6.77;;;;;;;43.16;33.40;101050.97;6154563;23;20736;-80
2023/03/22 00:28:17;;;;;;;12.30;5.60;;;;;;;43.15;33.08;101054.03;6154411;23;20860;-79
2023/03/22 00:30:54;;;;;;;10.97;5.97;;;;;;;43.19;32.96;101044.03;6154553;23;20381;-79
2023/03/22 00:33:21;;;;;;;19.47;5.60;;;;;;;43.14;33.23;101033.34;6130730;23;20718;-79
2023/03/22 00:35:52;;;;;;;17.23;5.20;;;;;;;43.10;32.99;101025.03;6154265;23;20413;-79
2023/03/22 00:38:18;;;;;;;9.07;4.60;;;;;;;43.13;32.91;101024.34;6154448;23;20416;-79
2023/03/22 00:40:45;;;;;;;15.07;5.00;;;;;;;43.13;33.11;101024.34;6154378;23;20385;-81
2023/03/22 00:43:11;;;;;;;16.20;4.50;;;;;;;43.14;32.83;101031.41;6154207;23;20516;-80
2023/03/22 00:45:39;;;;;;;13.70;5.03;;;;;;;43.13;33.03;101035.25;6154027;23;20436;-81
2023/03/22 00:48:11;;;;;;;15.80;5.30;;;;;;;43.07;33.22;101033.09;6154258;23;20465;-81
2023/03/22 00:50:39;;;;;;;15.87;5.57;;;;;;;43.06;33.30;101056.88;6154208;23;20508;-79
2023/03/22 00:53:05;;;;;;;17.50;5.13;;;;;;;43.00;32.47;101057.41;6154191;23;20378;-80
2023/03/22 00:55:32;;;;;;;14.10;5.20;;;;;;;42.53;31.65;101038.53;6156074;23;20383;-78
2023/03/22 00:57:58;;;;;;;20.40;4.40;;;;;;;42.28;31.67;101032.16;6154229;23;20937;-78
2023/03/22 01:00:24;;;;;;;12.90;4.93;;;;;;;42.13;31.61;101025.38;6154149;23;20904;-78
2023/03/22 01:02:52;;;;;;;19.93;7.23;;;;;;;41.78;32.13;101035.69;6155909;23;20466;-79
2023/03/22 01:05:20;;;;;;;19.97;7.50;;;;;;;41.55;32.60;101044.09;6153986;23;20377;-79
2023/03/22 01:07:50;;;;;;;17.87;8.43;;;;;;;41.51;32.43;101036.91;6154128;23;20385;-79
2023/03/22 01:10:17;;;;;;;14.47;5.97;;;;;;;41.47;32.49;101038.69;6154005;23;20823;-79
2023/03/22 01:12:44;;;;;;;20.20;9.20;;;;;;;41.42;33.00;101036.13;6153962;23;20424;-78
2023/03/22 01:15:10;;;;;;;11.63;5.30;;;;;;;41.32;32.84;101046.28;6155896;23;20520;-79
2023/03/22 01:17:36;;;;;;;16.17;7.03;;;;;;;41.36;32.66;101040.16;6155727;23;20452;-79
2023/03/22 01:20:03;;;;;;;17.13;9.07;;;;;;;41.24;32.39;101035.38;6153705;23;20845;-79
2023/03/22 01:22:29;;;;;;;10.73;4.67;;;;;;;41.04;33.08;101028.72;6153912;23;20418;-79
2023/03/22 01:24:56;;;;;;;10.67;5.43;;;;;;;41.15;32.56;101029.97;6153599;23;20414;-78
2023/03/22 02:17:02;;;;;;;11.57;5.60;;;;;;;39.82;36.49;101044.09;5151977;27;20506;-86
2023/03/22 02:19:58;;;;;;;12.10;5.97;;;;;;;39.88;36.25;101036.59;5113038;28;20984;-85
2023/03/22 02:22:38;;;;;;;13.13;8.30;;;;;;;39.88;36.41;101037.41;5118604;28;20442;-84
2023/03/22 02:25:22;;;;;;;10.90;5.43;;;;;;;39.79;36.25;101033.06;5111669;28;20454;-84
2023/03/22 02:28:13;;;;;;;9.43;5.03;;;;;;;39.85;36.38;101026.38;5111448;28;20418;-84
2023/03/22 02:31:08;;;;;;;11.30;5.67;;;;;;;40.13;35.87;101022.28;5111815;28;20410;-85
2023/03/22 02:34:14;;;;;;;10.10;5.67;;;;;;;40.12;35.84;101020.69;5073606;28;20419;-84
2023/03/22 02:36:46;;;;;;;10.10;5.63;;;;;;;40.06;36.18;101013.81;5111977;28;20539;-86
2023/03/22 02:39:53;;;;;;;11.20;5.60;;;;;;;39.92;35.69;101010.41;5111951;28;20838;-86
2023/03/22 02:42:34;;;;;;;14.87;5.70;;;;;;;39.82;35.83;101013.41;5077631;28;20427;-85
2023/03/22 02:45:26;;;;;;;13.13;5.50;;;;;;;39.90;35.26;101013.47;5096581;28;20482;-85
2023/03/22 02:48:03;;;;;;;10.53;6.10;;;;;;;40.03;35.19;101009.81;5110673;28;20431;-86
2023/03/22 02:50:45;;;;;;;9.57;5.10;;;;;;;39.94;35.03;100998.09;5116337;28;20415;-86
2023/03/22 02:53:49;;;;;;;10.37;5.63;;;;;;;40.27;35.00;101016.75;5091765;28;20445;-87
2023/03/22 02:56:53;;;;;;;10.17;5.90;;;;;;;40.08;35.19;101014.28;5034661;28;20454;-85
2023/03/22 02:59:22;;;;;;;13.63;7.13;;;;;;;40.06;35.11;101011.09;5115102;28;20477;-85
2023/03/22 03:01:52;;;;;;;13.03;7.17;;;;;;;40.25;35.04;101017.03;5083790;28;20514;-85
2023/03/22 03:04:31;;;;;;;8.97;5.60;;;;;;;40.30;34.27;101007.94;5090621;28;20452;-84
2023/03/22 03:07:03;;;;;;;11.70;6.50;;;;;;;40.47;33.72;101009.84;5123634;28;20531;-85
2023/03/22 03:09:30;;;;;;;12.53;5.07;;;;;;;40.42;33.90;100986.34;5110304;28;20416;-84
2023/03/22 03:11:56;;;;;;;8.93;4.60;;;;;;;40.43;34.09;100990.66;5109352;28;20438;-85
2023/03/22 03:14:28;;;;;;;9.30;4.93;;;;;;;40.39;34.38;100987.00;5095753;28;20416;-84
2023/03/22 03:17:21;;;;;;;8.60;4.87;;;;;;;40.43;34.56;100992.56;5098082;28;20430;-85
2023/03/22 03:19:53;;;;;;;11.63;8.97;;;;;;;40.31;34.96;100978.81;5096973;28;20434;-87
2023/03/22 03:22:37;;;;;;;11.67;6.87;;;;;;;40.34;34.78;100970.06;5097644;28;20797;-87
2023/03/22 03:25:56;;;;;;;14.50;8.70;;;;;;;40.49;34.37;100958.69;5082979;28;20446;-85
2023/03/22 03:28:48;;;;;;;14.97;8.47;;;;;;;40.48;34.38;100959.81;5045246;28;20425;-84
2023/03/22 03:31:51;;;;;;;13.30;6.87;;;;;;;40.46;34.48;100972.91;5091312;28;20408;-84
2023/03/22 03:34:26;;;;;;;11.90;6.70;;;;;;;40.36;34.59;100973.25;5096385;28;20777;-84
2023/03/22 03:37:21;;;;;;;12.33;7.20;;;;;;;40.36;34.72;100970.53;5088334;28;20417;-84
2023/03/22 03:40:13;;;;;;;11.50;5.93;;;;;;;40.25;35.20;100951.81;5081761;28;20416;-85
2023/03/22 03:42:45;;;;;;;12.93;6.20;;;;;;;40.32;34.89;100962.19;5082746;28;20423;-85
2023/03/22 03:45:14;;;;;;;9.97;5.40;;;;;;;40.36;35.23;100975.94;5076042;28;20484;-84
2023/03/22 03:47:43;;;;;;;13.67;8.07;;;;;;;40.36;34.82;100975.94;5076821;28;20855;-86
2023/03/22 03:50:11;;;;;;;15.43;9.80;;;;;;;40.49;34.71;100985.88;5076615;28;20536;-86
2023/03/22 03:52:37;;;;;;;17.80;9.73;;;;;;;40.48;34.91;100985.09;5076744;28;20429;-85
2023/03/22 03:55:04;;;;;;;11.00;6.83;;;;;;;40.39;34.71;100967.16;5087275;28;20426;-85
2023/03/22 03:57:30;;;;;;;13.37;8.10;;;;;;;40.38;35.20;100982.66;5096297;28;20435;-85
2023/03/22 03:59:56;;;;;;;9.33;6.30;;;;;;;40.40;34.93;100982.34;5085005;28;20420;-85
2023/03/22 04:02:22;;;;;;;10.13;6.73;;;;;;;40.47;35.07;100982.66;5080442;28;20969;-84
2023/03/22 04:04:48;;;;;;;13.53;7.47;;;;;;;40.48;35.20;100981.56;5095942;28;20459;-84
2023/03/22 04:07:14;;;;;;;12.53;8.50;;;;;;;40.20;35.28;100973.69;5095227;28;20412;-85
2023/03/22 04:09:41;;;;;;;13.60;9.30;;;;;;;40.29;35.63;100957.41;5084144;28;20444;-85
2023/03/22 04:12:10;;;;;;;12.50;7.33;;;;;;;40.36;35.78;100965.09;5075999;28;20420;-85
2023/03/22 04:14:36;;;;;;;13.10;7.90;;;;;;;40.43;35.21;100959.97;5092723;28;20423;-84
2023/03/22 04:17:02;;;;;;;11.47;8.77;;;;;;;40.54;35.22;100962.06;5087832;28;20412;-85
2023/03/22 04:19:28;;;;;;;9.13;6.47;;;;;;;40.68;34.95;100959.16;5106052;28;20446;-84
2023/03/22 04:21:54;;;;;;;13.50;8.70;;;;;;;40.72;34.95;100959.31;5081079;28;20439;-85
2023/03/22 04:24:21;;;;;;;12.50;8.53;;;;;;;40.60;35.18;100954.53;5094796;28;20830;-85
2023/03/22 04:26:47;;;;;;;14.40;7.97;;;;;;;40.52;34.99;100944.47;5089418;28;20482;-84
2023/03/22 04:29:14;;;;;;;15.33;7.03;;;;;;;40.56;34.87;100939.97;5087044;28;20470;-85
2023/03/22 04:31:40;;;;;;;11.90;8.03;;;;;;;40.51;35.49;100940.94;5094499;28;20972;-85
2023/03/22 04:34:06;;;;;;;12.93;8.80;;;;;;;40.53;34.92;100941.44;5082206;28;20413;-85
2023/03/22 04:36:38;;;;;;;11.83;6.47;;;;;;;40.61;34.82;100941.72;5112044;28;21010;-87
2023/03/22 04:39:09;;;;;;;12.83;7.67;;;;;;;40.43;35.14;100936.28;5094925;28;20519;-87
2023/03/22 04:41:36;;;;;;;13.00;7.80;;;;;;;40.52;34.95;100923.53;5087266;28;20529;-85
2023/03/22 04:44:03;;;;;;;11.30;7.10;;;;;;;40.35;35.71;100898.25;5080923;28;20486;-86
2023/03/22 04:46:34;;;;;;;14.00;7.73;;;;;;;40.42;35.37;100904.78;5094777;28;20800;-84
2023/03/22 04:49:00;;;;;;;10.63;6.20;;;;;;;40.41;35.66;100892.31;5093192;28;20431;-84
2023/03/22 04:51:27;;;;;;;13.10;6.30;;;;;;;40.32;36.20;100883.38;5094503;28;20443;-85
2023/03/22 04:53:53;;;;;;;8.57;5.57;;;;;;;40.36;36.00;100884.34;5080914;28;20444;-85
2023/03/22 04:56:20;;;;;;;11.00;7.10;;;;;;;40.25;35.77;100883.88;5087505;28;20421;-84
2023/03/22 04:58:46;;;;;;;11.90;7.67;;;;;;;40.47;35.13;100879.38;5074405;28;20448;-85
2023/03/22 05:01:16;;;;;;;10.13;6.70;;;;;;;40.48;35.30;100873.63;5075215;28;20416;-84
2023/03/22 05:03:44;;;;;;;10.57;7.30;;;;;;;40.55;35.35;100884.00;5075275;28;20816;-84
2023/03/22 05:06:10;;;;;;;10.17;6.47;;;;;;;40.52;35.18;100887.38;5072933;28;20460;-84
2023/03/22 05:08:37;;;;;;;12.10;7.20;;;;;;;40.53;35.62;100891.69;5074146;28;20794;-84
2023/03/22 05:11:09;;;;;;;13.13;6.60;;;;;;;40.52;35.22;100890.91;5074645;28;20439;-84
2023/03/22 05:13:37;;;;;;;9.63;7.17;;;;;;;40.49;35.52;100893.44;5074304;28;20428;-84
2023/03/22 05:16:04;;;;;;;23.37;8.50;;;;;;;40.49;35.64;100896.16;5074325;28;20980;-86
2023/03/22 05:18:31;;;;;;;10.83;8.00;;;;;;;40.50;35.48;100892.31;5074603;28;20412;-85
2023/03/22 05:20:58;;;;;;;13.43;7.87;;;;;;;40.38;35.51;100901.09;5075333;28;20424;-85
2023/03/22 05:23:25;;;;;;;13.00;8.07;;;;;;;40.31;35.40;100894.56;5074190;28;20496;-85
2023/03/22 05:25:53;;;;;;;12.40;7.00;;;;;;;40.39;35.26;100893.75;5074016;28;20455;-85
2023/03/22 05:28:21;;;;;;;13.73;6.83;;;;;;;40.61;34.88;100890.06;5074367;28;20425;-85
2023/03/22 05:30:48;;;;;;;12.00;7.50;;;;;;;40.63;34.85;100890.53;5074399;28;20555;-85
2023/03/22 05:33:15;;;;;;;16.20;7.17;;;;;;;40.61;35.38;100899.03;5075866;28;20420;-85
2023/03/22 05:35:42;;;;;;;16.10;8.13;;;;;;;40.51;35.66;100885.75;5077467;28;20499;-87
2023/03/22 05:38:09;;;;;;;15.17;7.47;;;;;;;40.49;35.70;100915.19;5077101;28;20413;-90
2023/03/22 05:40:35;;;;;;;9.70;6.17;;;;;;;40.39;35.46;100926.38;5075393;28;20507;-90
2023/03/22 05:43:01;;;;;;;9.57;5.77;;;;;;;40.51;35.06;100930.06;5075523;28;20424;-89
2023/03/22 05:45:27;;;;;;;14.63;6.23;;;;;;;40.59;35.31;100924.94;5071750;28;20460;-87
2023/03/22 05:47:53;;;;;;;12.10;6.30;;;;;;;40.57;35.02;100929.91;5077283;28;20971;-88
2023/03/22 05:50:21;;;;;;;10.23;6.00;;;;;;;40.65;34.77;100931.81;5075327;28;20452;-87
2023/03/22 05:52:48;;;;;;;14.20;6.97;;;;;;;40.90;34.42;100935.59;5077189;28;20803;-87
2023/03/22 05:55:18;;;;;;;14.53;5.90;;;;;;;40.78;34.84;100939.78;5089032;28;20499;-90
2023/03/22 05:57:50;;;;;;;11.00;6.10;;;;;;;40.70;35.17;100959.63;5088475;28;20911;-86
2023/03/22 06:00:17;;;;;;;12.83;6.47;;;;;;;40.65;35.73;100969.88;5091401;28;20431;-85
2023/03/22 06:02:47;;;;;;;17.13;7.23;;;;;;;40.67;35.66;100982.03;5073434;28;20508;-86
2023/03/22 06:05:16;;;;;;;21.70;12.60;;;;;;;40.75;35.82;100996.72;5073199;28;20466;-85
2023/03/22 06:07:42;;;;;;;16.30;11.27;;;;;;;40.75;35.30;101010.31;5107064;28;20419;-83
2023/03/22 06:10:11;;;;;;;14.40;10.40;;;;;;;40.68;35.58;101010.03;5090780;28;20428;-83
2023/03/22 06:12:37;;;;;;;16.77;11.53;;;;;;;40.70;35.24;101013.22;5078880;28;20460;-84
2023/03/22 06:15:03;;;;;;;18.87;12.30;;;;;;;40.69;35.33;101004.25;5074688;28;20552;-85
2023/03/22 06:17:30;;;;;;;18.83;11.60;;;;;;;40.69;35.69;101000.72;5078392;28;20960;-84
2023/03/22 06:19:56;;;;;;;18.47;13.17;;;;;;;40.54;35.79;101010.19;5075450;28;20475;-86
2023/03/22 06:22:22;;;;;;;19.70;14.47;;;;;;;40.59;35.58;101006.53;5077567;28;20437;-87
2023/03/22 06:24:49;;;;;;;20.60;16.10;;;;;;;40.58;35.72;101016.59;5083450;28;20456;-87
2023/03/22 06:27:16;;;;;;;24.03;16.57;;;;;;;40.53;35.62;101030.34;5077226;28;20808;-87
2023/03/22 06:29:48;;;;;;;25.17;16.97;;;;;;;40.50;35.87;101028.25;5079269;28;20428;-87
2023/03/22 06:32:14;;;;;;;22.90;17.37;;;;;;;40.43;35.87;101028.72;5079856;28;20487;-87
2023/03/22 06:34:40;;;;;;;28.23;16.20;;;;;;;40.40;35.85;101031.28;5070023;28;20422;-87
2023/03/22 06:37:06;;;;;;;21.27;14.93;;;;;;;40.43;35.92;101041.50;5065876;28;20431;-87
2023/03/22 06:39:32;;;;;;;20.60;16.80;;;;;;;40.36;35.67;101041.19;5071042;28;20429;-86
2023/03/22 06:41:58;;;;;;;19.60;16.30;;;;;;;40.46;35.69;101051.75;5068685;28;20973;-87
2023/03/22 06:44:24;;;;;;;22.87;17.27;;;;;;;40.36;35.78;101055.59;5069395;28;20465;-85
2023/03/22 06:46:50;;;;;;;21.00;15.30;;;;;;;40.36;35.66;101055.59;5066664;28;20976;-84
2023/03/22 06:49:18;;;;;;;24.97;17.67;;;;;;;40.46;35.59;101049.84;5070048;28;20465;-85
2023/03/22 06:51:44;;;;;;;24.67;15.47;;;;;;;40.54;35.47;101050.97;5083444;28;20861;-84
2023/03/22 06:54:12;;;;;;;22.10;16.33;;;;;;;40.70;35.37;101065.72;5088398;28;20424;-85
2023/03/22 06:56:38;;;;;;;22.13;14.73;;;;;;;40.60;35.46;101057.06;5081361;28;20445;-85
2023/03/22 06:59:04;;;;;;;18.33;13.97;;;;;;;40.55;35.39;101066.19;5069437;28;20417;-85
2023/03/22 07:01:30;;;;;;;18.17;12.83;;;;;;;40.42;35.00;101042.63;5072574;28;20479;-83
2023/03/22 07:03:56;;;;;;;13.80;10.10;;;;;;;40.52;34.82;101073.06;5072471;28;20480;-85
2023/03/22 07:06:22;;;;;;;14.90;10.93;;;;;;;40.54;34.54;101078.97;5071935;28;20599;-85
2023/03/22 07:08:47;;;;;;;15.63;11.30;;;;;;;40.47;34.69;101085.97;5071528;28;20417;-84
2023/03/22 07:11:13;;;;;;;15.90;11.47;;;;;;;40.37;34.71;101064.53;5073266;28;20472;-85
2023/03/22 07:13:39;;;;;;;18.93;12.30;;;;;;;40.46;34.63;101079.75;5074225;28;20417;-84
2023/03/22 07:16:06;;;;;;;17.50;12.23;;;;;;;40.56;34.75;101089.53;5074168;28;20981;-87
2023/03/22 07:18:32;;;;;;;20.90;15.10;;;;;;;40.43;35.30;101095.88;5082748;28;20436;-88
2023/03/22 07:20:58;;;;;;;24.40;18.27;;;;;;;40.40;34.66;101085.66;5089449;28;20424;-87
2023/03/22 07:23:24;;;;;;;25.93;19.50;;;;;;;40.48;34.68;101101.19;5086495;28;20844;-87
2023/03/22 07:25:50;;;;;;;27.17;22.07;;;;;;;40.45;34.75;101110.75;5085769;28;20464;-86
2023/03/22 07:28:16;;;;;;;28.33;22.90;;;;;;;40.50;34.44;101107.13;5073957;28;20421;-87
2023/03/22 07:30:42;;;;;;;37.83;28.60;;;;;;;40.51;34.33;101111.44;5078734;28;20418;-88
2023/03/22 07:33:09;;;;;;;33.40;27.17;;;;;;;40.69;34.79;101121.19;5072270;28;20426;-85
2023/03/22 07:35:36;;;;;;;39.93;29.77;;;;;;;40.72;34.48;101117.84;5078956;28;20418;-90
2023/03/22 07:38:03;;;;;;;32.43;28.27;;;;;;;40.77;34.18;101131.31;5072209;28;20457;-91
2023/03/22 07:40:29;;;;;;;32.30;22.93;;;;;;;40.72;34.08;101125.22;5077598;28;20448;-91
2023/03/22 07:42:58;;;;;;;37.73;31.23;;;;;;;40.62;34.52;101118.16;5082287;28;20414;-93
2023/03/22 07:45:25;;;;;;;30.43;27.90;;;;;;;40.79;34.56;101141.84;5063247;28;20458;-90
2023/03/22 07:47:52;;;;;;;38.60;32.47;;;;;;;40.72;34.71;101128.72;5077025;28;20441;-90
2023/03/22 07:50:18;;;;;;;35.30;29.43;;;;;;;40.83;34.38;101147.47;5080706;28;20418;-88
2023/03/22 07:52:48;;;;;;;32.77;26.93;;;;;;;40.83;34.06;101148.25;5074072;28;20418;-88
2023/03/22 07:55:14;;;;;;;29.67;26.37;;;;;;;40.79;34.46;101152.72;5087371;28;20420;-88
2023/03/22 07:57:41;;;;;;;38.67;26.07;;;;;;;40.89;34.66;101148.91;5073953;28;20417;-86
2023/03/22 08:00:10;;;;;;;37.87;28.50;;;;;;;40.76;35.33;101159.63;5075194;28;20453;-85
2023/03/22 08:02:37;;;;;;;29.17;24.40;;;;;;;40.81;34.50;101155.94;5079290;28;20421;-85
2023/03/22 08:05:04;;;;;;;32.40;27.47;;;;;;;40.89;34.48;101163.31;5071536;28;20469;-82
2023/03/22 08:07:30;;;;;;;37.07;28.77;;;;;;;40.87;34.21;101165.53;5073837;28;20517;-82
2023/03/22 08:09:56;;;;;;;37.77;27.87;;;;;;;40.88;34.44;101161.69;5071737;28;20543;-86
2023/03/22 08:12:22;;;;;;;32.17;26.10;;;;;;;40.98;34.50;101163.31;5080252;28;20436;-88
2023/03/22 08:14:50;;;;;;;39.33;30.57;;;;;;;40.90;34.07;101166.81;5096600;28;20463;-84
2023/03/22 08:17:17;;;;;;;30.57;27.70;;;;;;;41.06;34.08;101171.47;5083792;28;20425;-83
2023/03/22 08:19:44;;;;;;;32.43;27.50;;;;;;;41.03;34.79;101171.34;5082637;28;20421;-89
2023/03/22 08:22:12;;;;;;;37.73;29.87;;;;;;;41.04;34.66;101171.00;5076356;28;20417;-88
2023/03/22 08:24:38;;;;;;;35.03;32.50;;;;;;;40.94;34.17;101165.88;5099028;28;20445;-85
2023/03/22 08:27:04;;;;;;;36.77;31.63;;;;;;;41.21;33.43;101156.59;5077252;28;20432;-91
2023/03/22 08:29:31;;;;;;;41.90;30.93;;;;;;;41.18;34.12;101159.16;5062141;28;20793;-90
2023/03/22 08:32:01;;;;;;;34.30;30.53;;;;;;;41.26;34.14;101171.97;5095761;28;20478;-90
2023/03/22 08:34:37;;;;;;;35.53;30.33;;;;;;;41.36;33.99;101170.84;5076291;28;20428;-93
2023/03/22 08:37:05;;;;;;;30.90;25.87;;;;;;;41.47;33.28;101161.22;5081657;28;20424;-92
2023/03/22 08:39:32;;;;;;;40.83;29.33;;;;;;;41.41;33.45;101167.97;5068136;28;20413;-84
2023/03/22 08:41:58;;;;;;;32.40;29.17;;;;;;;41.34;33.70;101165.72;5079961;28;20508;-91
2023/03/22 08:44:24;;;;;;;32.63;26.20;;;;;;;41.50;34.29;101172.28;5072460;28;20571;-86
2023/03/22 08:46:51;;;;;;;31.20;27.20;;;;;;;41.48;33.88;101168.25;5075839;28;20484;-89
2023/03/22 08:49:17;;;;;;;36.90;27.00;;;;;;;41.47;33.57;101172.91;5080317;28;20515;-85
2023/03/22 08:51:43;;;;;;;28.17;25.60;;;;;;;41.49;33.61;101180.75;5076667;28;20445;-91
2023/03/22 08:54:11;;;;;;;32.40;26.67;;;;;;;41.65;32.79;101179.13;5103479;28;20427;-86
2023/03/22 08:56:37;;;;;;;27.60;22.63;;;;;;;41.51;33.20;101184.75;5103529;28;20473;-88
2023/03/22 08:59:05;;;;;;;34.03;28.10;;;;;;;41.61;33.58;101194.50;5075357;28;20520;-86
2023/03/22 09:01:31;;;;;;;35.83;28.27;;;;;;;41.71;33.30;101194.16;5077951;28;21061;-86
2023/03/22 09:03:57;;;;;;;32.67;29.27;;;;;;;41.57;33.25;101190.84;5083283;28;20416;-85
2023/03/22 09:06:25;;;;;;;36.00;29.17;;;;;;;41.63;33.12;101197.72;5084909;28;20455;-88
2023/03/22 09:09:02;;;;;;;33.90;27.60;;;;;;;41.64;32.98;101193.88;5100712;28;20413;-93
2023/03/22 09:11:41;;;;;;;32.10;25.07;;;;;;;41.57;33.33;101199.81;5106029;28;20492;-93
2023/03/22 09:14:07;;;;;;;36.20;28.27;;;;;;;41.65;33.18;101211.00;5086335;28;20425;-92
2023/03/22 09:16:33;;;;;;;30.60;25.53;;;;;;;41.74;33.64;101215.34;5085936;28;20462;-83
2023/03/22 09:19:00;;;;;;;33.20;25.80;;;;;;;41.76;34.17;101204.13;5082321;28;20506;-93
2023/03/22 09:21:28;;;;;;;40.03;29.70;;;;;;;41.81;33.78;101215.66;5108714;28;20436;-88
2023/03/22 09:23:55;;;;;;;34.50;31.20;;;;;;;41.83;32.97;101213.38;5092752;28;20498;-85
2023/03/22 09:26:24;;;;;;;40.47;31.97;;;;;;;41.81;33.03;101212.91;5090386;28;20466;-85
2023/03/22 09:28:50;;;;;;;37.53;29.73;;;;;;;41.74;32.85;101215.34;5103285;28;20527;-84
2023/03/22 09:31:16;;;;;;;32.57;28.00;;;;;;;41.72;32.96;101219.47;5096216;28;20429;-84
2023/03/22 09:33:43;;;;;;;33.80;26.27;;;;;;;41.77;32.80;101216.63;5093471;28;21025;-84
2023/03/22 09:36:10;;;;;;;32.17;27.20;;;;;;;41.84;32.88;101208.72;5080110;28;20812;-83
2023/03/22 09:38:37;;;;;;;34.97;27.33;;;;;;;41.91;33.02;101216.41;5080097;28;20428;-88
2023/03/22 09:41:21;;;;;;;30.67;25.23;;;;;;;41.97;32.52;101218.63;5089872;28;20518;-88
2023/03/22 09:43:57;;;;;;;31.67;24.37;;;;;;;41.90;33.20;101223.78;5077206;28;20451;-88
2023/03/22 09:46:31;;;;;;;35.20;26.93;;;;;;;41.97;33.05;101223.28;5066925;28;20476;-89
2023/03/22 09:49:00;;;;;;;30.63;25.23;;;;;;;42.06;32.74;101224.84;5093546;28;21014;-85
2023/03/22 09:51:53;;;;;;;29.70;22.37;;;;;;;42.14;32.57;101218.56;5072507;28;20420;-84
2023/03/22 09:54:40;;;;;;;29.33;22.27;;;;;;;42.17;32.53;101217.13;5098276;28;20443;-87
2023/03/22 09:57:33;;;;;;;30.47;21.00;;;;;;;42.24;32.67;101228.34;5093483;28;20511;-85
2023/03/22 10:00:19;;;;;;;31.10;24.50;;;;;;;42.22;32.63;101233.31;5083370;28;20956;-85
2023/03/22 10:02:45;;;;;;;30.23;21.33;;;;;;;42.16;32.67;101231.88;5086314;28;20415;-85
2023/03/22 10:05:31;;;;;;;25.93;20.57;;;;;;;42.08;32.50;101229.97;5110405;28;20459;-85
2023/03/22 12:20:58;;;;;;;9.33;5.70;;;;;;;42.08;33.71;101045.44;5816650;22;8046974;-86
2023/03/22 12:23:28;;;;;;;13.07;4.83;;;;;;;42.12;33.86;101045.59;6159882;23;20572;-90
2023/03/22 12:30:26;;;;;;;;;;;;;;;;;;;;;
2023/03/22 12:36:36;;;;;;;7.10;3.53;;;;;;;42.22;32.65;101011.69;6156896;23;20429;-86
2023/03/22 12:39:07;;;;;;;13.03;4.77;;;;;;;41.99;32.37;100981.19;6150852;23;20388;-83
2023/03/22 12:42:09;;;;;;;12.60;4.00;;;;;;;42.15;32.76;100995.84;6130112;23;20385;-85
2023/03/22 12:48:54;;;;;;;9.50;3.80;;;;;;;42.13;32.46;100970.84;6156014;23;20361;-87
2023/03/22 12:52:16;;;;;;;;;;;;;;;;;;;;;
2023/03/22 12:54:51;;;;;;;9.27;3.73;;;;;;;42.22;31.60;100962.63;6037415;23;20464;-86
2023/03/22 12:57:19;;;;;;;9.03;3.33;;;;;;;42.29;31.67;100950.03;6010372;23;20440;-88
2023/03/22 13:07:11;;;;;;;8.83;3.97;;;;;;;42.51;31.51;100959.00;6062202;23;20452;-89
2023/03/22 13:59:28;;;;;;;10.20;4.60;;;;;;;43.07;31.56;100858.41;6153561;23;20476;-85
2023/03/22 14:02:22;;;;;;;17.53;5.57;;;;;;;43.10;31.83;100857.75;6129563;23;20409;-86
2023/03/22 14:04:54;;;;;;;12.23;4.70;;;;;;;43.04;32.22;100850.91;6129384;23;20412;-87
2023/03/22 14:07:45;;;;;;;12.70;4.63;;;;;;;43.03;31.73;100846.56;6129364;23;20404;-86
2023/03/22 14:10:16;;;;;;;14.60;5.07;;;;;;;43.01;32.25;100840.66;6129262;23;20879;-86
2023/03/22 14:12:51;;;;;;;15.60;4.27;;;;;;;42.97;32.21;100826.91;6129692;23;20392;-88
2023/03/22 14:15:31;;;;;;;16.10;6.03;;;;;;;42.83;32.29;100799.94;6129892;23;20392;-88
2023/03/22 14:18:03;;;;;;;8.73;4.03;;;;;;;42.94;32.21;100822.09;6129973;23;20756;-88
2023/03/22 14:20:38;;;;;;;10.80;4.23;;;;;;;42.93;32.27;100826.78;6129766;23;20487;-87
2023/03/22 14:23:26;;;;;;;13.07;4.27;;;;;;;42.96;32.01;100811.63;6129726;23;20392;-89
2023/03/22 14:26:02;;;;;;;13.10;7.13;;;;;;;42.85;32.16;100814.06;6128833;23;20439;-86
2023/03/22 14:28:39;;;;;;;13.20;5.07;;;;;;;42.86;32.20;100809.38;6129148;23;20736;-87
2023/03/22 14:31:06;;;;;;;15.57;5.23;;;;;;;42.83;32.27;100820.97;6128872;23;20389;-85
2023/03/22 14:33:42;;;;;;;12.77;5.07;;;;;;;42.78;32.64;100811.06;6155178;23;20706;-82
2023/03/22 14:36:12;;;;;;;14.90;5.60;;;;;;;42.78;32.45;100810.28;6127377;23;20939;-84
2023/03/22 14:38:45;;;;;;;17.00;5.53;;;;;;;42.77;32.92;100805.97;6127405;23;20389;-83
2023/03/22 14:41:13;;;;;;;21.70;6.10;;;;;;;42.77;32.96;100808.69;6127646;23;20392;-83
2023/03/22 14:43:42;;;;;;;14.83;5.30;;;;;;;42.72;32.53;100798.81;6127556;23;20393;-84
2023/03/22 14:46:15;;;;;;;9.90;4.20;;;;;;;42.70;32.77;100803.81;6127352;23;20572;-77
2023/03/22 14:48:55;;;;;;;17.37;5.03;;;;;;;42.61;32.75;100803.16;6154095;23;20888;-82
2023/03/22 14:51:31;;;;;;;13.83;5.40;;;;;;;42.59;33.00;100797.22;6127592;23;20407;-84
2023/03/22 14:53:59;;;;;;;19.70;5.10;;;;;;;42.61;32.95;100782.13;6127543;23;20431;-85
2023/03/22 14:56:32;;;;;;;11.33;4.90;;;;;;;42.49;33.54;100787.53;6128805;23;20377;-79
2023/03/22 14:59:01;;;;;;;9.33;4.63;;;;;;;42.58;33.27;100795.63;6129385;23;20393;-90
2023/03/22 15:01:33;;;;;;;15.80;5.77;;;;;;;42.46;33.46;100790.94;6129210;23;20498;-87
2023/03/22 15:04:05;;;;;;;15.50;4.60;;;;;;;42.53;33.52;100795.81;6129010;23;20405;-90
2023/03/22 15:06:32;;;;;;;12.93;5.03;;;;;;;42.48;33.70;100787.84;6129113;23;20770;-86
2023/03/22 15:09:09;;;;;;;11.27;4.40;;;;;;;42.52;33.55;100792.28;6129072;23;20408;-86
2023/03/22 15:11:38;;;;;;;17.27;6.90;;;;;;;42.52;33.61;100786.03;6129659;23;20388;-85
2023/03/22 15:14:06;;;;;;;10.90;5.03;;;;;;;42.51;33.44;100784.47;6154862;23;20437;-91
2023/03/22 15:16:35;;;;;;;13.70;5.83;;;;;;;42.64;33.57;100786.09;6127604;23;20388;-90
2023/03/22 15:19:03;;;;;;;22.60;7.23;;;;;;;42.63;33.47;100781.78;6128361;23;20385;-90
2023/03/22 15:21:31;;;;;;;12.40;5.97;;;;;;;42.57;33.36;100785.81;6127462;23;20405;-90
2023/03/22 15:24:13;;;;;;;25.50;12.40;;;;;;;42.66;33.34;100786.53;6128780;23;20438;-84
2023/03/22 16:18:27;;;;;;;18.00;5.43;;;;;;;43.36;32.46;100683.38;5089519;27;20341;-85
2023/03/22 16:20:55;;;;;;;13.37;4.17;;;;;;;43.63;31.87;100681.78;5099776;28;20528;-83
2023/03/22 16:23:25;;;;;;;10.37;4.50;;;;;;;43.82;31.65;100672.91;5076615;28;20539;-82
2023/03/22 16:25:52;;;;;;;14.27;4.30;;;;;;;43.73;31.61;100661.34;5060380;28;20433;-82
2023/03/22 16:28:18;;;;;;;12.17;4.40;;;;;;;43.69;31.76;100668.66;5071723;28;20426;-84
2023/03/22 16:30:44;;;;;;;17.17;7.00;;;;;;;43.78;31.46;100654.84;5110789;28;20524;-84
2023/03/22 16:33:15;;;;;;;12.10;3.93;;;;;;;43.92;31.42;100666.16;5121010;28;20437;-81
2023/03/22 16:35:41;;;;;;;10.60;4.90;;;;;;;44.04;31.10;100655.13;5115144;28;20430;-82
2023/03/22 16:38:11;;;;;;;9.57;4.23;;;;;;;44.08;31.13;100671.63;5083393;28;20436;-81